createdAt,value
2023-11-01T00:00:07.442Z,0.40
2023-11-01T00:02:43.253Z,0.50
2023-11-01T00:05:12.097Z,0.40
2023-11-01T00:07:40.829Z,0.70
2023-11-01T00:10:10.268Z,0.60
2023-11-01T00:12:39.151Z,0.50
2023-11-01T00:15:09.841Z,0.40
2023-11-01T00:17:38.850Z,0.50
2023-11-01T00:20:10.244Z,0.50
2023-11-01T00:22:39.085Z,0.50
2023-11-01T00:25:08.269Z,0.50
2023-11-01T00:27:37.106Z,0.55
2023-11-01T00:30:05.971Z,0.60
2023-11-01T00:32:35.255Z,0.60
2023-11-01T00:35:04.313Z,0.50
2023-11-01T00:37:34.347Z,0.50
2023-11-01T00:40:03.484Z,0.50
2023-11-01T00:42:32.144Z,0.50
2023-11-01T00:45:00.894Z,0.50
2023-11-01T00:47:29.554Z,0.50
2023-11-01T00:49:58.699Z,0.40
2023-11-01T00:52:27.357Z,0.50
2023-11-01T00:54:57.436Z,0.50
2023-11-01T00:57:26.151Z,0.35
2023-11-01T00:59:55.365Z,0.47
2023-11-01T01:02:24.132Z,0.50
2023-11-01T01:04:53.283Z,0.50
2023-11-01T01:07:22.384Z,0.40
2023-11-01T01:09:51.882Z,0.43
2023-11-01T01:12:22.165Z,0.60
2023-11-01T01:14:51.449Z,0.50
2023-11-01T01:17:20.331Z,0.50
2023-11-01T01:19:48.989Z,0.40
2023-11-01T01:22:17.672Z,0.45
2023-11-01T01:24:46.268Z,0.40
2023-11-01T01:27:14.980Z,0.40
2023-11-01T01:29:45.085Z,0.50
2023-11-01T01:32:14.177Z,0.40
2023-11-01T01:34:43.027Z,0.60
2023-11-01T01:37:11.626Z,0.43
2023-11-01T01:39:40.379Z,0.38
2023-11-01T01:42:09.197Z,0.30
2023-11-01T01:44:37.997Z,0.30
2023-11-01T01:47:08.176Z,0.40
2023-11-01T01:49:43.004Z,0.40
2023-11-01T01:52:14.440Z,0.50
2023-11-01T01:54:43.563Z,0.50
2023-11-01T01:57:12.449Z,0.40
2023-11-01T01:59:41.429Z,0.50
2023-11-01T02:02:12.160Z,0.30
2023-11-01T02:04:41.169Z,0.40
2023-11-01T02:07:11.264Z,0.30
2023-11-01T02:09:39.965Z,0.30
2023-11-01T02:12:09.317Z,0.40
2023-11-01T02:14:38.544Z,0.30
2023-11-01T02:17:08.022Z,0.30
2023-11-01T02:19:38.073Z,0.30
2023-11-01T02:22:07.592Z,0.30
2023-11-01T02:24:37.832Z,0.30
2023-11-01T02:27:06.881Z,0.30
2023-11-01T02:29:35.578Z,0.40
2023-11-01T02:32:04.841Z,0.40
2023-11-01T02:34:33.811Z,0.30
2023-11-01T02:37:02.448Z,0.40
2023-11-01T02:39:31.152Z,0.30
2023-11-01T02:42:01.417Z,0.30
2023-11-01T02:44:30.309Z,0.40
2023-11-01T02:46:59.125Z,0.30
2023-11-01T02:49:27.821Z,0.40
2023-11-01T02:51:56.447Z,0.40
2023-11-01T02:54:25.149Z,0.40
2023-11-01T02:56:53.879Z,0.50
2023-11-01T02:59:23.932Z,0.45
2023-11-01T03:01:52.622Z,0.65
2023-11-01T03:04:21.760Z,0.60
2023-11-01T03:06:50.935Z,0.50
2023-11-01T03:09:19.560Z,0.50
2023-11-01T03:11:48.274Z,0.40
2023-11-01T03:14:17.305Z,0.40
2023-11-01T03:16:47.698Z,0.40
2023-11-01T03:19:16.311Z,0.32
2023-11-01T03:21:45.092Z,0.35
2023-11-01T03:24:13.701Z,0.40
2023-11-01T03:26:43.348Z,0.40
2023-11-01T03:29:12.170Z,0.40
2023-11-01T03:31:41.301Z,0.40
2023-11-01T03:34:11.666Z,0.50
2023-11-01T03:36:40.275Z,0.40
2023-11-01T03:39:09.201Z,0.35
2023-11-01T03:41:41.189Z,0.40
2023-11-01T03:44:10.021Z,0.32
2023-11-01T03:46:39.266Z,0.40
2023-11-01T03:49:08.013Z,0.40
2023-11-01T03:51:38.076Z,0.40
2023-11-01T03:54:06.853Z,0.50
2023-11-01T03:56:35.803Z,0.40
2023-11-01T03:59:04.519Z,0.40
2023-11-01T04:01:33.259Z,0.50
2023-11-01T04:04:02.388Z,0.40
2023-11-01T04:06:31.048Z,0.40
2023-11-01T04:09:01.459Z,0.40
2023-11-01T04:11:30.095Z,0.50
2023-11-01T04:13:59.327Z,0.40
2023-11-01T04:16:29.990Z,0.30
2023-11-01T04:18:59.065Z,0.70
2023-11-01T04:21:28.079Z,0.38
2023-11-01T04:23:56.899Z,0.40
2023-11-01T04:26:26.948Z,0.50
2023-11-01T04:28:55.640Z,0.40
2023-11-01T04:31:25.725Z,0.40
2023-11-01T04:33:54.905Z,0.60
2023-11-01T04:36:27.017Z,0.50
2023-11-01T04:38:56.543Z,0.45
2023-11-01T04:41:29.595Z,0.50
2023-11-01T04:43:58.462Z,0.40
2023-11-01T04:46:27.106Z,0.45
2023-11-01T04:48:55.886Z,0.50
2023-11-01T04:51:24.529Z,0.60
2023-11-01T04:53:53.333Z,0.45
2023-11-01T04:56:21.981Z,0.60
2023-11-01T04:58:52.016Z,0.50
2023-11-01T05:01:20.908Z,0.50
2023-11-01T05:03:49.799Z,0.50
2023-11-01T05:06:18.824Z,0.50
2023-11-01T05:08:47.548Z,0.57
2023-11-01T05:11:16.203Z,0.50
2023-11-01T05:13:45.493Z,0.50
2023-11-01T05:16:16.131Z,0.60
2023-11-01T05:18:45.402Z,0.73
2023-11-01T05:21:14.805Z,0.80
2023-11-01T05:23:43.746Z,0.68
2023-11-01T05:26:16.783Z,0.80
2023-11-01T05:28:45.962Z,0.70
2023-11-01T05:31:16.481Z,0.80
2023-11-01T05:33:45.370Z,0.80
2023-11-01T05:36:15.510Z,0.63
2023-11-01T05:38:44.643Z,0.70
2023-11-01T05:41:13.407Z,0.80
2023-11-01T05:43:42.975Z,0.70
2023-11-01T05:46:11.591Z,0.60
2023-11-01T05:48:41.591Z,0.65
2023-11-01T05:51:10.210Z,0.70
2023-11-01T05:53:38.927Z,0.70
2023-11-01T05:56:10.275Z,0.47
2023-11-01T05:58:39.728Z,0.50
2023-11-01T06:01:08.555Z,0.60
2023-11-01T06:03:37.403Z,0.70
2023-11-01T06:06:09.305Z,0.60
2023-11-01T06:08:38.072Z,0.60
2023-11-01T06:11:08.617Z,0.50
2023-11-01T06:13:37.325Z,0.50
2023-11-01T06:16:09.063Z,0.50
2023-11-01T06:18:38.969Z,0.60
2023-11-01T06:21:09.376Z,0.50
2023-11-01T06:23:38.241Z,0.60
2023-11-01T06:26:07.060Z,0.45
2023-11-01T06:28:36.338Z,0.50
2023-11-01T06:31:05.555Z,0.50
2023-11-01T06:33:34.877Z,0.50
2023-11-01T06:36:03.961Z,0.50
2023-11-01T06:38:34.127Z,0.60
2023-11-01T06:41:04.702Z,0.50
2023-11-01T06:43:33.740Z,0.70
2023-11-01T06:46:02.563Z,0.80
2023-11-01T06:48:31.180Z,0.57
2023-11-01T06:51:00.016Z,0.43
2023-11-01T06:53:28.672Z,0.60
2023-11-01T06:55:58.953Z,0.80
2023-11-01T06:58:27.543Z,0.60
2023-11-01T07:00:56.244Z,0.60
2023-11-01T07:03:25.003Z,0.60
2023-11-01T07:05:53.758Z,0.60
2023-11-01T07:08:22.657Z,0.50
2023-11-01T07:10:51.348Z,0.45
2023-11-01T07:13:21.534Z,0.60
2023-11-01T07:15:50.662Z,0.50
2023-11-01T07:18:20.518Z,0.40
2023-11-01T07:20:49.618Z,0.50
2023-11-01T07:23:18.621Z,0.50
2023-11-01T07:25:47.280Z,0.60
2023-11-01T07:28:16.443Z,0.70
2023-11-01T07:30:48.083Z,0.73
2023-11-01T07:33:17.487Z,0.40
2023-11-01T07:35:46.210Z,0.60
2023-11-01T07:38:15.083Z,0.50
2023-11-01T07:40:43.697Z,0.43
2023-11-01T07:43:11.366Z,0.50
2023-11-01T07:45:40.114Z,0.50
2023-11-01T07:48:10.457Z,0.88
2023-11-01T07:50:39.581Z,0.47
2023-11-01T07:53:08.308Z,0.40
2023-11-01T07:55:36.976Z,0.70
2023-11-01T07:58:05.869Z,0.40
2023-11-01T08:00:34.983Z,0.50
2023-11-01T08:03:04.305Z,0.40
2023-11-01T08:05:34.384Z,0.40
2023-11-01T08:08:03.084Z,0.50
2023-11-01T08:10:31.790Z,0.52
2023-11-01T08:13:00.492Z,0.57
2023-11-01T08:15:33.547Z,0.50
2023-11-01T08:18:03.607Z,0.52
2023-11-01T08:20:33.887Z,0.40
2023-11-01T08:23:03.121Z,0.40
2023-11-01T08:25:32.051Z,0.50
2023-11-01T08:28:00.664Z,0.60
2023-11-01T08:30:30.175Z,0.45
2023-11-01T08:32:59.625Z,0.50
2023-11-01T08:35:29.063Z,0.40
2023-11-01T08:37:59.167Z,0.55
2023-11-01T08:40:27.815Z,0.50
2023-11-01T08:42:56.613Z,0.57
2023-11-01T08:45:25.993Z,0.50
2023-11-01T08:47:55.017Z,0.65
2023-11-01T08:50:23.685Z,0.70
2023-11-01T08:52:52.355Z,0.50
2023-11-01T08:55:23.397Z,0.52
2023-11-01T08:57:52.202Z,0.60
2023-11-01T09:00:24.562Z,0.60
2023-11-01T09:02:57.788Z,0.65
2023-11-01T09:05:26.452Z,0.80
2023-11-01T09:07:55.490Z,0.60
2023-11-01T09:10:25.467Z,0.60
2023-11-01T09:12:54.302Z,0.60
2023-11-01T09:15:23.030Z,0.63
2023-11-01T09:17:51.744Z,0.80
2023-11-01T09:20:20.470Z,0.70
2023-11-01T09:22:49.666Z,0.60
2023-11-01T09:25:19.361Z,0.60
2023-11-01T09:27:49.352Z,0.63
2023-11-01T09:30:18.085Z,0.70
2023-11-01T09:32:47.301Z,0.68
2023-11-01T09:35:16.286Z,0.55
2023-11-01T09:37:44.915Z,0.55
2023-11-01T09:40:13.983Z,0.70
2023-11-01T09:42:42.726Z,0.50
2023-11-01T09:45:14.296Z,0.60
2023-11-01T09:47:43.492Z,0.60
2023-11-01T09:50:14.697Z,0.60
2023-11-01T09:52:43.575Z,0.50
2023-11-01T09:55:12.412Z,0.70
2023-11-01T09:57:42.319Z,0.55
2023-11-01T10:00:11.993Z,0.50
2023-11-01T10:02:42.332Z,0.60
2023-11-01T10:05:11.065Z,0.60
2023-11-01T10:07:39.716Z,0.40
2023-11-01T10:10:09.614Z,0.50
2023-11-01T10:12:40.892Z,0.50
2023-11-01T10:15:20.284Z,0.60
2023-11-01T10:17:52.661Z,0.45
2023-11-01T10:20:25.311Z,0.60
2023-11-01T10:22:54.102Z,0.50
2023-11-01T10:25:23.157Z,0.60
2023-11-01T10:27:52.005Z,0.50
2023-11-01T10:30:21.033Z,0.50
2023-11-01T10:32:58.531Z,0.50
2023-11-01T10:35:28.483Z,0.40
2023-11-01T10:37:58.717Z,0.60
2023-11-01T10:40:28.955Z,0.50
2023-11-01T10:43:00.279Z,0.60
2023-11-01T10:45:29.521Z,0.60
2023-11-01T10:48:00.695Z,0.50
2023-11-01T10:50:30.507Z,0.73
2023-11-01T10:52:59.718Z,0.68
2023-11-01T10:55:29.993Z,0.60
2023-11-01T10:57:58.978Z,0.70
2023-11-01T11:00:30.551Z,0.50
2023-11-01T11:03:02.439Z,0.50
2023-11-01T11:05:32.431Z,0.60
2023-11-01T11:08:01.163Z,0.60
2023-11-01T11:10:30.959Z,0.52
2023-11-01T11:13:33.128Z,0.80
2023-11-01T11:16:02.010Z,0.60
2023-11-01T11:18:52.757Z,0.70
2023-11-01T11:21:40.922Z,0.40
2023-11-01T11:24:24.456Z,0.60
2023-11-01T11:26:53.458Z,0.57
2023-11-01T11:29:43.166Z,0.60
2023-11-01T11:32:18.359Z,0.50
2023-11-01T11:34:48.477Z,0.70
2023-11-01T11:37:18.095Z,0.70
2023-11-01T11:40:09.155Z,0.80
2023-11-01T11:42:50.937Z,0.88
2023-11-01T11:45:29.349Z,0.63
2023-11-01T11:48:00.403Z,0.70
2023-11-01T11:50:31.264Z,0.80
2023-11-01T11:52:59.888Z,0.77
2023-11-01T11:55:45.557Z,0.60
2023-11-01T11:58:14.353Z,0.50
2023-11-01T12:00:52.279Z,0.40
2023-11-01T12:03:25.216Z,0.40
2023-11-01T12:06:00.253Z,0.60
2023-11-01T12:08:36.171Z,0.43
2023-11-01T12:11:05.273Z,0.40
2023-11-01T12:13:45.191Z,0.50
2023-11-01T12:16:26.820Z,0.50
2023-11-01T12:19:17.915Z,0.50
2023-11-01T12:21:48.790Z,0.55
2023-11-01T12:24:17.764Z,0.40
2023-11-01T12:27:03.003Z,0.50
2023-11-01T12:29:40.271Z,0.60
2023-11-01T12:32:09.683Z,0.55
2023-11-01T12:34:38.998Z,0.60
2023-11-01T12:37:11.348Z,0.60
2023-11-01T12:39:41.065Z,0.45
2023-11-01T12:42:22.348Z,0.50
2023-11-01T12:44:51.533Z,0.50
2023-11-01T12:47:20.771Z,0.50
2023-11-01T12:49:50.065Z,0.60
2023-11-01T12:52:20.079Z,0.50
2023-11-01T12:54:49.598Z,0.60
2023-11-01T12:57:18.515Z,0.50
2023-11-01T12:59:47.322Z,0.50
2023-11-01T13:02:16.288Z,0.50
2023-11-01T13:04:44.945Z,0.60
2023-11-01T13:07:13.928Z,0.50
2023-11-01T13:09:43.985Z,0.50
2023-11-01T13:12:12.885Z,0.60
2023-11-01T13:14:41.712Z,0.50
2023-11-01T13:17:10.440Z,0.60
2023-11-01T13:19:39.071Z,0.60
2023-11-01T13:22:07.658Z,0.52
2023-11-01T13:24:36.359Z,0.60
2023-11-01T13:27:10.649Z,0.52
2023-11-01T13:29:40.280Z,0.60
2023-11-01T13:32:09.580Z,0.60
2023-11-01T13:34:38.812Z,0.60
2023-11-01T13:37:08.506Z,0.50
2023-11-01T13:39:37.387Z,0.60
2023-11-01T13:42:07.671Z,0.70
2023-11-01T13:44:36.416Z,0.60
2023-11-01T13:47:05.214Z,0.60
2023-11-01T13:49:37.023Z,0.50
2023-11-01T13:52:05.769Z,2.50
2023-11-01T13:54:34.375Z,1.73
2023-11-01T13:57:04.262Z,0.60
2023-11-01T13:59:34.585Z,0.70
2023-11-01T14:02:04.044Z,0.75
2023-11-01T14:04:33.016Z,0.80
2023-11-01T14:07:02.033Z,0.90
2023-11-01T14:09:31.040Z,0.88
2023-11-01T14:12:02.003Z,0.90
2023-11-01T14:14:30.859Z,0.82
2023-11-01T14:17:01.373Z,0.70
2023-11-01T14:19:30.378Z,0.73
2023-11-01T14:21:59.304Z,0.70
2023-11-01T14:24:28.407Z,0.60
2023-11-01T14:26:57.136Z,1.00
2023-11-01T14:29:26.982Z,0.90
2023-11-01T14:31:57.190Z,0.70
2023-11-01T14:34:29.079Z,0.80
2023-11-01T14:36:57.941Z,0.70
2023-11-01T14:39:27.077Z,0.90
2023-11-01T14:41:56.834Z,0.70
2023-11-01T14:44:25.606Z,0.70
2023-11-01T14:46:54.283Z,0.80
2023-11-01T14:49:23.489Z,0.98
2023-11-01T14:51:53.711Z,0.88
2023-11-01T14:54:22.321Z,0.90
2023-11-01T14:56:51.107Z,0.70
2023-11-01T14:59:20.306Z,0.65
2023-11-01T15:01:51.773Z,1.00
2023-11-01T15:04:20.653Z,0.70
2023-11-01T15:06:49.535Z,0.65
2023-11-01T15:09:21.028Z,0.70
2023-11-01T15:11:50.810Z,0.57
2023-11-01T15:14:19.527Z,0.60
2023-11-01T15:16:50.614Z,0.82
2023-11-01T15:19:19.389Z,0.68
2023-11-01T15:21:49.619Z,0.60
2023-11-01T15:24:20.451Z,0.80
2023-11-01T15:26:49.418Z,0.73
2023-11-01T15:29:18.131Z,0.80
2023-11-01T15:31:47.123Z,0.73
2023-11-01T15:34:16.461Z,0.50
2023-11-01T15:36:46.226Z,0.70
2023-11-01T15:39:14.868Z,0.80
2023-11-01T15:41:44.969Z,0.57
2023-11-01T15:44:13.672Z,0.60
2023-11-01T15:46:44.399Z,0.60
2023-11-01T15:49:14.670Z,0.85
2023-11-01T15:51:43.413Z,0.50
2023-11-01T15:54:12.420Z,0.50
2023-11-01T15:56:41.174Z,0.60
2023-11-01T15:59:11.526Z,0.80
2023-11-01T16:01:40.117Z,0.50
2023-11-01T16:04:09.040Z,0.60
2023-11-01T16:06:37.724Z,0.47
2023-11-01T16:09:06.974Z,0.63
2023-11-01T16:11:35.834Z,0.60
2023-11-01T16:14:05.696Z,0.68
2023-11-01T16:16:35.994Z,0.85
2023-11-01T16:19:05.112Z,0.80
2023-11-01T16:21:34.316Z,0.77
2023-11-01T16:24:03.045Z,0.60
2023-11-01T16:26:31.709Z,0.63
2023-11-01T16:29:00.693Z,0.80
2023-11-01T16:31:29.568Z,0.70
2023-11-01T16:33:59.866Z,0.60
2023-11-01T16:36:28.756Z,0.77
2023-11-01T16:38:57.410Z,0.50
2023-11-01T16:41:27.318Z,0.60
2023-11-01T16:43:56.244Z,0.75
2023-11-01T16:46:24.895Z,0.73
2023-11-01T16:48:53.645Z,0.70
2023-11-01T16:51:23.651Z,0.60
2023-11-01T16:53:52.392Z,0.73
2023-11-01T16:56:21.092Z,0.60
2023-11-01T16:58:49.761Z,0.60
2023-11-01T17:01:18.644Z,0.70
2023-11-01T17:03:47.732Z,0.63
2023-11-01T17:06:16.710Z,0.70
2023-11-01T17:08:47.247Z,0.60
2023-11-01T17:11:16.292Z,0.50
2023-11-01T17:13:45.271Z,0.50
2023-11-01T17:16:14.128Z,0.50
2023-11-01T17:18:43.196Z,0.70
2023-11-01T17:21:12.224Z,0.70
2023-11-01T17:23:42.218Z,0.55
2023-11-01T17:26:23.699Z,0.70
2023-11-01T17:28:52.508Z,0.98
2023-11-01T17:31:36.400Z,0.70
2023-11-01T17:34:05.408Z,0.82
2023-11-01T17:36:35.359Z,0.60
2023-11-01T17:39:06.745Z,0.75
2023-11-01T17:41:49.655Z,0.80
2023-11-01T17:44:21.001Z,0.55
2023-11-01T17:46:49.848Z,0.85
2023-11-01T17:49:33.288Z,0.47
2023-11-01T17:52:01.930Z,0.50
2023-11-01T17:54:30.501Z,0.90
2023-11-01T17:57:00.872Z,0.50
2023-11-01T17:59:29.563Z,0.82
2023-11-01T18:01:58.686Z,0.73
2023-11-01T18:04:28.213Z,1.05
2023-11-01T18:06:56.907Z,0.50
2023-11-01T18:09:25.987Z,0.70
2023-11-01T18:11:54.841Z,0.55
2023-11-01T18:14:24.848Z,0.60
2023-11-01T18:16:55.144Z,0.60
2023-11-01T18:19:24.095Z,0.65
2023-11-01T18:21:52.979Z,0.43
2023-11-01T18:24:36.468Z,0.50
2023-11-01T18:27:05.359Z,0.60
2023-11-01T18:29:36.085Z,0.60
2023-11-01T18:32:05.599Z,0.50
2023-11-01T18:34:34.824Z,0.60
2023-11-01T18:37:03.911Z,0.65
2023-11-01T18:39:33.012Z,0.70
2023-11-01T18:42:02.156Z,0.50
2023-11-01T18:44:31.488Z,0.45
2023-11-01T18:47:01.961Z,0.50
2023-11-01T18:49:43.261Z,0.50
2023-11-01T18:52:11.897Z,0.75
2023-11-01T18:54:42.292Z,0.80
2023-11-01T18:57:15.208Z,0.68
2023-11-01T18:59:44.945Z,0.60
2023-11-01T19:02:29.107Z,0.70
2023-11-01T19:05:00.322Z,0.50
2023-11-01T19:07:31.892Z,0.63
2023-11-01T19:10:01.095Z,0.60
2023-11-01T19:12:30.826Z,0.80
2023-11-01T19:15:01.045Z,0.80
2023-11-01T19:17:33.129Z,0.55
2023-11-01T19:20:04.465Z,0.50
2023-11-01T19:22:33.140Z,0.60
2023-11-01T19:25:01.776Z,0.60
2023-11-01T19:27:32.295Z,0.65
2023-11-01T19:30:01.020Z,0.70
2023-11-01T19:32:29.772Z,0.60
2023-11-01T19:34:58.658Z,0.70
2023-11-01T19:37:30.969Z,0.98
2023-11-01T19:40:03.698Z,0.70
2023-11-01T19:42:33.869Z,0.90
2023-11-01T19:45:02.698Z,0.73
2023-11-01T19:47:31.967Z,0.70
2023-11-01T19:50:01.040Z,0.85
2023-11-01T19:52:31.350Z,0.70
2023-11-01T19:55:00.013Z,0.60
2023-11-01T19:57:29.418Z,0.80
2023-11-01T19:59:58.502Z,0.80
2023-11-01T20:02:27.335Z,0.85
2023-11-01T20:04:56.476Z,0.60
2023-11-01T20:07:26.347Z,0.70
2023-11-01T20:09:58.524Z,0.70
2023-11-01T20:12:27.546Z,0.52
2023-11-01T20:14:56.248Z,0.50
2023-11-01T20:17:25.645Z,0.50
2023-11-01T20:19:54.970Z,0.70
2023-11-01T20:22:23.791Z,0.63
2023-11-01T20:24:52.572Z,0.63
2023-11-01T20:27:23.148Z,0.45
2023-11-01T20:29:52.083Z,0.50
2023-11-01T20:32:21.225Z,0.50
2023-11-01T20:34:49.892Z,0.60
2023-11-01T20:37:19.669Z,0.65
2023-11-01T20:39:49.460Z,0.50
2023-11-01T20:42:18.434Z,0.60
2023-11-01T20:44:48.450Z,0.52
2023-11-01T20:47:17.171Z,0.60
2023-11-01T20:49:47.604Z,0.77
2023-11-01T20:52:17.391Z,0.60
2023-11-01T20:54:55.386Z,0.88
2023-11-01T20:57:25.697Z,0.80
2023-11-01T20:59:55.991Z,0.90
2023-11-01T21:02:24.698Z,0.90
2023-11-01T21:04:53.393Z,0.70
2023-11-01T21:07:23.944Z,0.98
2023-11-01T21:09:52.991Z,0.70
2023-11-01T21:12:22.149Z,0.68
2023-11-01T21:14:50.881Z,0.70
2023-11-01T21:17:21.760Z,0.63
2023-11-01T21:19:51.222Z,0.70
2023-11-01T21:22:19.869Z,0.80
2023-11-01T21:24:48.623Z,0.70
2023-11-01T21:27:17.275Z,0.70
2023-11-01T21:29:47.120Z,0.60
2023-11-01T21:32:15.807Z,0.60
2023-11-01T21:34:45.836Z,0.60
2023-11-01T21:37:14.444Z,1.00
2023-11-01T21:39:43.498Z,1.13
2023-11-01T21:42:14.209Z,1.13
2023-11-01T21:44:43.203Z,1.02
2023-11-01T21:47:13.118Z,0.93
2023-11-01T21:49:42.151Z,1.25
2023-11-01T21:52:19.723Z,1.25
2023-11-01T21:54:48.881Z,0.95
2023-11-01T21:57:20.880Z,0.93
2023-11-01T21:59:50.279Z,0.70
2023-11-01T22:02:21.313Z,0.80
2023-11-01T22:04:53.048Z,0.70
2023-11-01T22:07:23.150Z,0.73
2023-11-01T22:09:54.970Z,0.50
2023-11-01T22:12:23.996Z,0.60
2023-11-01T22:14:52.602Z,0.88
2023-11-01T22:17:36.884Z,0.70
2023-11-01T22:20:07.896Z,0.70
2023-11-01T22:22:51.055Z,0.77
2023-11-01T22:25:25.317Z,0.80
2023-11-01T22:27:54.179Z,0.70
2023-11-01T22:30:22.816Z,0.63
2023-11-01T22:32:51.535Z,0.70
2023-11-01T22:35:29.227Z,0.63
2023-11-01T22:38:00.304Z,0.60
2023-11-01T22:40:29.078Z,0.60
2023-11-01T22:42:58.494Z,0.60
2023-11-01T22:45:27.602Z,0.80
2023-11-01T22:47:56.416Z,0.70
2023-11-01T22:50:25.159Z,0.75
2023-11-01T22:52:53.782Z,0.82
2023-11-01T22:55:24.001Z,0.70
2023-11-01T22:58:10.829Z,0.60
2023-11-01T23:00:39.970Z,0.70
2023-11-01T23:03:08.876Z,0.50
2023-11-01T23:05:38.183Z,0.77
2023-11-01T23:08:07.576Z,0.70
2023-11-01T23:10:38.883Z,0.75
2023-11-01T23:13:07.654Z,1.58
2023-11-01T23:15:36.616Z,1.67
2023-11-01T23:18:06.007Z,0.90
2023-11-01T23:20:34.838Z,0.90
2023-11-01T23:23:03.445Z,1.30
2023-11-01T23:25:33.098Z,1.30
2023-11-01T23:28:04.750Z,1.00
2023-11-01T23:30:44.196Z,0.77
2023-11-01T23:33:12.845Z,0.70
2023-11-01T23:35:45.797Z,0.90
2023-11-01T23:38:14.713Z,0.90
2023-11-01T23:40:44.368Z,0.80
2023-11-01T23:43:14.806Z,0.70
2023-11-01T23:45:58.126Z,0.90
2023-11-01T23:48:27.791Z,0.82
2023-11-01T23:50:56.778Z,0.60
2023-11-01T23:53:26.176Z,0.80
2023-11-01T23:55:55.353Z,0.80
2023-11-01T23:58:30.901Z,0.80
